Time;durP1;ratioP1;P1;durP2;ratioP2;P2;SDS_P1;SDS_P2;PMS_P1;PMS_P2;Temp;Humidity;BMP_temperature;BMP_pressure;BME280_temperature;BME280_humidity;BME280_pressure;Samples;Min_cycle;Max_cycle;Signal;HPM_P1;HPM_P2
2022/10/01 00:00:16;;;;;;;1.25;1.25;;;;;;;11.32;89.40;100174.91;2064281;28;20062;-71
2022/10/01 00:01:18;;;;;;;1.30;1.30;;;;;;;11.31;90.05;100167.91;2057132;28;20074;-71
2022/10/01 00:02:21;;;;;;;1.20;1.20;;;;;;;11.29;89.85;100157.47;2059543;28;20050;-71
2022/10/01 00:03:25;;;;;;;1.30;1.30;;;;;;;11.29;89.72;100176.38;2063178;28;20510;-70
2022/10/01 00:04:28;;;;;;;1.20;1.20;;;;;;;11.26;89.89;100173.59;2062615;28;20057;-71
2022/10/01 00:05:30;;;;;;;1.20;1.20;;;;;;;11.27;90.23;100151.66;2061737;28;20129;-71
2022/10/01 00:06:33;;;;;;;1.00;1.00;;;;;;;11.25;89.64;100166.66;2061802;28;20065;-71
2022/10/01 00:07:39;;;;;;;1.10;1.10;;;;;;;11.26;90.14;100157.41;2055920;28;20443;-71
2022/10/01 00:08:44;;;;;;;1.20;1.20;;;;;;;11.23;89.97;100156.22;2055883;28;20058;-70
2022/10/01 00:09:46;;;;;;;1.23;1.23;;;;;;;11.22;90.48;100146.56;2062739;28;20509;-71
2022/10/01 00:10:49;;;;;;;1.00;1.00;;;;;;;11.19;90.31;100152.69;2060068;28;20046;-71
2022/10/01 00:11:52;;;;;;;1.00;1.00;;;;;;;11.23;90.12;100148.09;2047445;29;20075;-71
2022/10/01 00:12:55;;;;;;;1.00;1.00;;;;;;;11.22;90.06;100137.66;2047229;28;20092;-71
2022/10/01 00:14:00;;;;;;;1.00;1.00;;;;;;;11.21;90.01;100163.88;2056620;28;20525;-71
2022/10/01 00:15:08;;;;;;;1.10;1.10;;;;;;;11.20;90.33;100137.22;2060739;28;20058;-71
2022/10/01 00:16:16;;;;;;;0.90;0.90;;;;;;;11.17;90.79;100136.03;2063901;28;20183;-71
2022/10/01 00:17:19;;;;;;;1.02;1.02;;;;;;;11.16;90.70;100134.47;2060442;28;20054;-71
2022/10/01 00:18:22;;;;;;;0.90;0.90;;;;;;;11.15;90.63;100126.72;2056415;28;20054;-71
2022/10/01 00:19:25;;;;;;;1.00;1.00;;;;;;;11.17;91.87;100119.03;2053255;28;20063;-71
2022/10/01 00:20:27;;;;;;;1.00;1.00;;;;;;;11.17;91.37;100135.25;2051505;28;20067;-71
2022/10/01 00:21:31;;;;;;;1.10;1.10;;;;;;;11.13;91.63;100134.44;2064176;28;20046;-71
2022/10/01 00:22:35;;;;;;;1.00;1.00;;;;;;;11.11;91.55;100134.78;2062568;28;20511;-71
2022/10/01 00:23:38;;;;;;;1.00;1.00;;;;;;;11.10;91.07;100143.25;2052570;28;20051;-71
2022/10/01 00:24:40;;;;;;;1.10;1.10;;;;;;;11.11;91.89;100148.31;2053794;28;20050;-71
2022/10/01 00:25:43;;;;;;;1.10;1.10;;;;;;;11.12;91.41;100127.44;2058387;28;20133;-71
2022/10/01 00:26:46;;;;;;;1.00;1.00;;;;;;;11.11;91.31;100126.69;2062661;28;20057;-72
2022/10/01 00:27:49;;;;;;;1.20;1.20;;;;;;;11.11;91.13;100118.59;2047755;29;20086;-72
2022/10/01 00:28:54;;;;;;;1.00;1.00;;;;;;;11.10;91.32;100140.56;2041873;28;20447;-71
2022/10/01 00:29:58;;;;;;;1.20;1.20;;;;;;;11.07;90.76;100108.88;2056756;28;20062;-71
2022/10/01 00:31:00;;;;;;;1.10;1.10;;;;;;;11.07;91.14;100111.56;2057300;28;20474;-71
2022/10/01 00:32:03;;;;;;;1.10;1.10;;;;;;;11.06;91.63;100107.28;2053302;28;20422;-71
2022/10/01 00:33:05;;;;;;;1.10;1.10;;;;;;;11.06;91.26;100118.09;2049367;28;20134;-69
2022/10/01 00:34:11;;;;;;;1.20;1.20;;;;;;;11.05;91.42;100111.13;2058600;28;20047;-70
2022/10/01 00:35:13;;;;;;;1.10;1.10;;;;;;;11.04;91.17;100098.75;2052061;28;20059;-70
2022/10/01 00:36:16;;;;;;;1.02;1.02;;;;;;;11.04;91.39;100094.16;2054717;28;20105;-70
2022/10/01 00:37:18;;;;;;;1.17;1.17;;;;;;;11.03;91.32;100102.59;2055489;28;20457;-70
2022/10/01 00:38:21;;;;;;;1.10;1.10;;;;;;;11.02;91.40;100111.88;2052581;28;20047;-71
2022/10/01 00:39:23;;;;;;;1.00;1.00;;;;;;;11.03;91.25;100098.00;2062020;28;20098;-70
2022/10/01 00:40:26;;;;;;;1.00;1.00;;;;;;;11.02;92.28;100093.72;2061232;28;20486;-70
2022/10/01 00:41:30;;;;;;;1.00;1.00;;;;;;;11.03;91.57;100111.50;2063019;28;20130;-70
2022/10/01 00:42:34;;;;;;;1.00;1.00;;;;;;;11.03;91.78;100099.91;2064478;28;20054;-71
2022/10/01 00:43:41;;;;;;;0.88;0.88;;;;;;;11.01;91.50;100104.88;2063419;28;20054;-71
2022/10/01 00:44:44;;;;;;;0.90;0.90;;;;;;;11.02;91.44;100087.56;2058723;28;20137;-71
2022/10/01 00:45:48;;;;;;;0.90;0.90;;;;;;;11.02;91.86;100085.63;2060312;28;20074;-71
2022/10/01 00:46:52;;;;;;;0.90;0.90;;;;;;;11.02;91.54;100095.66;2051280;28;20624;-70
2022/10/01 00:47:58;;;;;;;0.90;0.90;;;;;;;11.00;91.77;100081.72;2057649;28;20062;-70
2022/10/01 00:49:06;;;;;;;0.90;0.90;;;;;;;11.01;91.80;100077.88;2055205;28;20562;-71
2022/10/01 00:50:15;;;;;;;0.90;0.90;;;;;;;11.02;91.58;100080.22;2060216;28;20558;-70
2022/10/01 00:51:19;;;;;;;0.80;0.80;;;;;;;10.98;91.49;100084.78;2059879;28;20050;-70
2022/10/01 00:52:25;;;;;;;0.80;0.80;;;;;;;10.98;91.59;100065.09;2054427;28;20094;-72
2022/10/01 00:53:28;;;;;;;0.85;0.85;;;;;;;10.95;92.17;100079.31;2054728;28;20050;-71
2022/10/01 00:54:33;;;;;;;1.00;1.00;;;;;;;10.95;92.47;100049.63;2053183;28;20058;-71
2022/10/01 00:55:40;;;;;;;0.90;0.90;;;;;;;10.95;92.30;100049.63;2055246;28;20081;-70
2022/10/01 00:56:43;;;;;;;0.90;0.90;;;;;;;10.91;92.29;100078.50;2052846;28;20066;-71
2022/10/01 00:57:47;;;;;;;1.00;1.00;;;;;;;10.90;92.36;100063.41;2039008;29;20226;-71
2022/10/01 00:58:53;;;;;;;1.02;1.02;;;;;;;10.89;92.24;100054.56;2039043;28;20068;-71
2022/10/01 01:00:00;;;;;;;0.90;0.90;;;;;;;10.90;92.74;100041.81;2054021;28;20613;-71
2022/10/01 01:01:04;;;;;;;0.85;0.85;;;;;;;10.87;92.73;100047.94;2063166;28;20572;-71
2022/10/01 01:02:07;;;;;;;0.90;0.90;;;;;;;10.88;93.22;100065.72;2057805;28;20078;-71
2022/10/01 01:03:11;;;;;;;0.80;0.80;;;;;;;10.86;92.93;100032.88;2059003;28;20056;-71
2022/10/01 01:04:16;;;;;;;0.80;0.80;;;;;;;10.83;92.76;100047.13;2061206;28;20081;-71
2022/10/01 01:05:18;;;;;;;0.90;0.90;;;;;;;10.81;92.81;100036.69;2062620;28;20050;-71
2022/10/01 01:06:21;;;;;;;1.00;1.00;;;;;;;10.79;93.24;100030.06;2064243;28;20388;-71
2022/10/01 01:07:23;;;;;;;1.00;1.00;;;;;;;10.80;93.41;100047.84;2060346;28;20438;-71
2022/10/01 01:08:28;;;;;;;1.00;1.00;;;;;;;10.79;93.87;100033.56;2060352;28;20518;-72
2022/10/01 01:09:32;;;;;;;0.90;0.90;;;;;;;10.79;93.15;100038.16;2054678;28;20043;-72
2022/10/01 01:10:48;;;;;;;0.80;0.80;;;;;;;10.80;93.48;100031.63;2054268;28;20050;-72
2022/10/01 01:11:56;;;;;;;0.75;0.75;;;;;;;10.80;93.02;100035.09;2063006;28;20479;-72
2022/10/01 01:13:11;;;;;;;0.80;0.80;;;;;;;10.79;92.86;100021.97;2057234;28;20442;-72
2022/10/01 01:14:21;;;;;;;0.77;0.77;;;;;;;10.79;93.38;100032.75;2056860;28;20043;-72
2022/10/01 01:15:31;;;;;;;0.80;0.80;;;;;;;10.78;92.81;100048.19;2057422;28;20144;-72
2022/10/01 01:16:43;;;;;;;0.85;0.85;;;;;;;10.78;93.05;100047.41;2059605;28;20494;-72
2022/10/01 01:17:54;;;;;;;0.98;0.98;;;;;;;10.80;93.15;100023.53;2061465;28;20058;-72
2022/10/01 01:19:01;;;;;;;0.90;0.90;;;;;;;10.82;92.44;100023.94;2058960;28;20054;-71
2022/10/01 01:20:29;;;;;;;0.82;0.82;;;;;;;10.78;92.73;100025.81;2056453;28;20101;-72
2022/10/01 01:21:34;;;;;;;0.82;0.82;;;;;;;10.79;93.41;100025.44;2057112;28;20595;-72
2022/10/01 01:22:45;;;;;;;0.75;0.75;;;;;;;10.79;93.18;100016.56;2052983;28;20059;-72
2022/10/01 01:24:18;;;;;;;0.90;0.90;;;;;;;10.76;93.41;100030.78;2055786;28;20085;-71
2022/10/01 01:25:27;;;;;;;0.75;0.75;;;;;;;10.76;93.19;100006.47;2057124;28;20046;-72
2022/10/01 01:26:41;;;;;;;0.80;0.80;;;;;;;10.77;93.22;100018.84;2060078;28;20046;-72
2022/10/01 01:27:49;;;;;;;0.88;0.88;;;;;;;10.75;94.01;100005.69;2058981;28;20093;-73
2022/10/01 01:29:00;;;;;;;0.80;0.80;;;;;;;10.75;93.72;99994.91;2050263;28;20573;-71
2022/10/01 01:30:07;;;;;;;0.90;0.90;;;;;;;10.77;93.49;99981.81;2044763;28;20055;-71
2022/10/01 01:31:13;;;;;;;0.80;0.80;;;;;;;10.77;93.83;99986.44;2054568;28;20466;-71
2022/10/01 01:32:22;;;;;;;0.80;0.80;;;;;;;10.76;93.36;99985.69;2058609;28;20051;-71
2022/10/01 01:33:26;;;;;;;0.80;0.80;;;;;;;10.76;93.35;99991.06;2060697;28;20462;-72
2022/10/01 01:34:33;;;;;;;0.80;0.80;;;;;;;10.77;93.68;99983.72;2060905;28;20491;-72
2022/10/01 01:35:42;;;;;;;0.80;0.80;;;;;;;10.75;93.30;99972.53;2053933;28;20108;-72
2022/10/01 01:36:53;;;;;;;0.80;0.80;;;;;;;10.73;93.04;99972.13;2052952;28;20113;-72
2022/10/01 01:38:00;;;;;;;0.80;0.80;;;;;;;10.73;94.33;99953.22;2060188;28;20085;-71
2022/10/01 01:39:09;;;;;;;0.88;0.88;;;;;;;10.76;93.55;99952.50;2057148;28;20132;-70
2022/10/01 01:40:15;;;;;;;0.80;0.80;;;;;;;10.76;94.15;99952.50;2061867;28;20053;-71
2022/10/01 01:41:21;;;;;;;0.80;0.80;;;;;;;10.76;93.81;99966.00;2060013;28;20576;-72
2022/10/01 01:42:36;;;;;;;0.85;0.85;;;;;;;10.72;93.70;99962.47;2062379;28;20047;-71
2022/10/01 01:43:43;;;;;;;0.80;0.80;;;;;;;10.70;93.85;99959.34;2060913;28;20054;-71
2022/10/01 01:44:49;;;;;;;0.80;0.80;;;;;;;10.72;93.54;99957.06;2061296;28;20062;-72
2022/10/01 01:45:54;;;;;;;0.70;0.70;;;;;;;10.73;93.83;99962.09;2047661;28;20042;-71
2022/10/01 01:47:00;;;;;;;0.80;0.80;;;;;;;10.73;94.21;99964.03;2052441;28;20459;-72
2022/10/01 01:48:04;;;;;;;0.80;0.80;;;;;;;10.75;93.80;99940.16;2045950;28;20519;-72
2022/10/01 01:49:07;;;;;;;0.80;0.80;;;;;;;10.74;94.17;99949.38;2031430;29;20138;-72
2022/10/01 01:50:14;;;;;;;0.90;0.90;;;;;;;10.75;93.58;99972.53;2043984;28;20047;-72
2022/10/01 01:51:22;;;;;;;0.90;0.90;;;;;;;10.73;93.54;99978.31;2056322;28;20050;-71
2022/10/01 01:52:25;;;;;;;0.90;0.90;;;;;;;10.74;94.50;99949.38;2058899;28;20331;-71
2022/10/01 01:53:31;;;;;;;0.98;0.98;;;;;;;10.76;93.47;99949.78;2049913;28;20055;-70
2022/10/01 01:54:35;;;;;;;0.80;0.80;;;;;;;10.75;93.51;99945.53;2050663;28;20114;-71
2022/10/01 01:55:38;;;;;;;0.82;0.82;;;;;;;10.74;93.38;99943.97;2049275;28;20455;-70
2022/10/01 01:56:41;;;;;;;0.80;0.80;;;;;;;10.74;94.45;99938.56;2065888;28;20046;-71
2022/10/01 01:57:43;;;;;;;0.80;0.80;;;;;;;10.77;94.00;99921.63;2053371;28;20092;-71
2022/10/01 01:58:47;;;;;;;0.82;0.82;;;;;;;10.77;94.24;99935.13;2047189;28;20159;-71
2022/10/01 01:59:50;;;;;;;0.90;0.90;;;;;;;10.76;94.31;99968.69;2060388;28;20062;-71
2022/10/01 02:00:53;;;;;;;0.80;0.80;;;;;;;10.76;93.91;99931.69;2053067;28;20462;-72
2022/10/01 02:01:57;;;;;;;0.80;0.80;;;;;;;10.75;94.65;99940.16;2039643;28;20470;-72
2022/10/01 02:03:00;;;;;;;1.00;1.00;;;;;;;10.76;94.32;99928.19;2038774;29;20075;-70
2022/10/01 02:04:05;;;;;;;0.90;0.90;;;;;;;10.77;94.27;99927.03;2046635;28;20057;-71
2022/10/01 02:05:12;;;;;;;0.88;0.88;;;;;;;10.77;94.25;99919.72;2044706;29;20047;-71
2022/10/01 02:06:28;;;;;;;0.90;0.90;;;;;;;10.76;94.28;99912.78;2040863;28;20067;-71
2022/10/01 02:07:58;;;;;;;1.00;1.00;;;;;;;10.70;94.31;99914.25;2039676;29;20416;-72
2022/10/01 02:09:06;;;;;;;1.10;1.10;;;;;;;10.71;94.69;99901.50;2049243;28;20856;-71
2022/10/01 02:10:25;;;;;;;1.00;1.00;;;;;;;10.72;94.79;99903.84;2046145;28;20047;-72
2022/10/01 02:11:29;;;;;;;0.82;0.82;;;;;;;10.74;95.00;99906.16;2048175;28;20050;-71
2022/10/01 02:12:48;;;;;;;1.00;1.00;;;;;;;10.75;95.25;99895.00;2055369;28;20055;-71
2022/10/01 02:14:05;;;;;;;0.80;0.80;;;;;;;10.74;95.14;99890.75;2053785;28;20129;-71
2022/10/01 02:15:20;;;;;;;0.90;0.90;;;;;;;10.72;95.40;99893.03;2056399;28;20058;-71
2022/10/01 02:16:30;;;;;;;1.00;1.00;;;;;;;10.73;94.98;99883.03;2048356;28;20055;-71
2022/10/01 02:17:42;;;;;;;1.00;1.00;;;;;;;10.74;95.13;99884.56;2055408;28;20097;-71
2022/10/01 02:18:52;;;;;;;0.93;0.93;;;;;;;10.75;94.67;99867.25;2054833;28;20146;-71
2022/10/01 02:19:58;;;;;;;1.00;1.00;;;;;;;10.75;94.97;99880.75;2053412;28;20149;-71
2022/10/01 02:21:11;;;;;;;0.80;0.80;;;;;;;10.74;95.05;99868.38;2054846;28;20097;-71
2022/10/01 02:22:19;;;;;;;1.00;1.00;;;;;;;10.76;94.69;99868.78;2050148;28;20066;-71
2022/10/01 02:23:28;;;;;;;1.08;1.08;;;;;;;10.78;94.88;99880.03;2054209;28;20050;-71
2022/10/01 02:24:39;;;;;;;0.90;0.90;;;;;;;10.77;94.70;99859.53;2054305;28;20055;-71
2022/10/01 02:25:47;;;;;;;0.93;0.93;;;;;;;10.78;94.63;99864.59;2047648;29;20160;-71
2022/10/01 02:26:54;;;;;;;0.85;0.85;;;;;;;10.79;93.99;99859.97;2054265;28;20065;-71
2022/10/01 02:28:00;;;;;;;0.90;0.90;;;;;;;10.77;94.04;99857.63;2044769;29;20537;-71
2022/10/01 02:29:07;;;;;;;0.90;0.90;;;;;;;10.81;94.26;99853.06;2043910;28;20521;-70
2022/10/01 02:30:12;;;;;;;0.80;0.80;;;;;;;10.79;94.55;99852.66;2054567;28;20521;-70
2022/10/01 02:31:17;;;;;;;0.80;0.80;;;;;;;10.80;94.03;99867.69;2046253;28;20066;-70
2022/10/01 02:32:22;;;;;;;0.80;0.80;;;;;;;10.81;93.95;99860.38;2047250;28;20055;-70
2022/10/01 02:33:29;;;;;;;0.80;0.80;;;;;;;10.82;94.55;99851.13;2052252;28;20059;-70
2022/10/01 02:34:33;;;;;;;0.90;0.90;;;;;;;10.82;94.22;99854.63;2051467;28;20055;-71
2022/10/01 02:35:37;;;;;;;0.82;0.82;;;;;;;10.84;94.22;99841.53;2054650;28;20066;-70
2022/10/01 02:36:44;;;;;;;0.90;0.90;;;;;;;10.86;94.41;99846.56;2045760;29;20054;-69
2022/10/01 02:37:50;;;;;;;0.80;0.80;;;;;;;10.87;94.73;99848.13;2045814;28;20054;-70
2022/10/01 02:38:57;;;;;;;1.00;1.00;;;;;;;10.87;94.57;99853.53;2055126;28;20505;-69
2022/10/01 02:40:01;;;;;;;0.90;0.90;;;;;;;10.87;95.04;99838.09;2054961;28;20130;-69
2022/10/01 02:41:08;;;;;;;0.98;0.98;;;;;;;10.88;93.84;99838.91;2054439;28;20063;-70
2022/10/01 02:42:13;;;;;;;0.90;0.90;;;;;;;10.89;94.13;99840.44;2054942;28;20100;-70
2022/10/01 02:43:21;;;;;;;0.82;0.82;;;;;;;10.89;94.21;99835.81;2052420;28;20085;-70
2022/10/01 02:44:29;;;;;;;0.90;0.90;;;;;;;10.89;94.65;99837.75;2049950;28;20635;-70
2022/10/01 02:45:35;;;;;;;1.00;1.00;;;;;;;10.89;94.55;99832.34;2047705;28;20067;-70
2022/10/01 02:46:44;;;;;;;1.00;1.00;;;;;;;10.90;94.46;99837.38;2054735;28;20142;-71
2022/10/01 02:47:53;;;;;;;1.00;1.00;;;;;;;10.91;94.52;99833.50;2045339;28;20626;-71
2022/10/01 02:48:57;;;;;;;0.90;0.90;;;;;;;10.92;94.38;99839.69;2036534;29;20048;-70
2022/10/01 02:50:01;;;;;;;0.90;0.90;;;;;;;10.93;94.85;99825.03;2046416;28;20098;-70
2022/10/01 02:51:21;;;;;;;0.90;0.90;;;;;;;10.92;94.10;99840.50;2054488;28;20133;-71
2022/10/01 02:52:32;;;;;;;1.00;1.00;;;;;;;10.91;95.02;99833.50;2051082;28;20090;-70
2022/10/01 02:53:41;;;;;;;0.90;0.90;;;;;;;10.93;94.43;99822.34;2055493;28;20093;-70
2022/10/01 02:54:50;;;;;;;0.80;0.80;;;;;;;10.96;94.68;99811.59;2030886;29;20524;-71
2022/10/01 02:55:55;;;;;;;0.90;0.90;;;;;;;10.95;95.06;99830.88;2039299;28;20131;-70
2022/10/01 02:58:21;;;;;;;0.93;0.93;;;;;;;10.96;94.90;99808.09;2049239;28;20121;-70
2022/10/01 02:59:24;;;;;;;1.00;1.00;;;;;;;10.97;94.58;99823.97;2053448;28;20059;-71
2022/10/01 03:00:28;;;;;;;0.80;0.80;;;;;;;10.96;94.66;99805.41;2053628;28;20535;-69
2022/10/01 03:01:32;;;;;;;0.90;0.90;;;;;;;10.99;94.82;99820.91;2055326;28;20067;-70
2022/10/01 03:02:36;;;;;;;0.80;0.80;;;;;;;11.00;94.74;99819.75;2060720;28;20089;-70
2022/10/01 03:03:40;;;;;;;0.90;0.90;;;;;;;11.00;94.94;99825.94;2057556;28;20122;-70
2022/10/01 03:04:43;;;;;;;0.90;0.90;;;;;;;11.00;94.41;99811.66;2060789;28;20046;-70
2022/10/01 03:05:46;;;;;;;0.90;0.90;;;;;;;11.01;93.96;99802.38;2060924;28;20370;-70
2022/10/01 03:06:49;;;;;;;0.80;0.80;;;;;;;11.02;94.62;99820.16;2057368;28;20577;-70
2022/10/01 03:07:51;;;;;;;0.73;0.73;;;;;;;11.03;94.31;99805.50;2055865;28;20062;-69
2022/10/01 03:08:56;;;;;;;0.80;0.80;;;;;;;11.06;94.30;99820.97;2059135;28;20080;-70
2022/10/01 03:09:59;;;;;;;0.80;0.80;;;;;;;11.05;94.00;99792.41;2054241;28;20054;-69
2022/10/01 03:11:02;;;;;;;0.90;0.90;;;;;;;11.05;94.04;99795.88;2052504;28;20057;-70
2022/10/01 03:12:05;;;;;;;0.88;0.88;;;;;;;11.04;93.82;99790.84;2051255;28;20129;-69
2022/10/01 03:13:08;;;;;;;0.80;0.80;;;;;;;11.04;94.47;99790.84;2048922;28;20047;-70
2022/10/01 03:14:10;;;;;;;0.82;0.82;;;;;;;11.05;94.44;99793.16;2062212;28;20572;-70
2022/10/01 03:15:14;;;;;;;0.80;0.80;;;;;;;11.06;94.06;99791.25;2061472;28;20055;-71
2022/10/01 03:16:16;;;;;;;0.80;0.80;;;;;;;11.06;94.57;99783.94;2063411;28;20116;-70
2022/10/01 03:17:21;;;;;;;0.80;0.80;;;;;;;11.08;94.38;99794.38;2043314;28;20071;-70
2022/10/01 03:18:23;;;;;;;0.80;0.80;;;;;;;11.07;93.98;99790.88;2055517;28;20614;-70
2022/10/01 03:19:26;;;;;;;0.80;0.80;;;;;;;11.09;94.31;99782.41;2061237;28;20054;-70
2022/10/01 03:20:28;;;;;;;0.88;0.88;;;;;;;11.09;94.40;99787.81;2066364;28;20054;-70
2022/10/01 03:21:31;;;;;;;0.90;0.90;;;;;;;11.09;94.51;99787.81;2061527;28;20129;-70
2022/10/01 03:22:33;;;;;;;0.80;0.80;;;;;;;11.11;94.45;99780.13;2061477;28;20495;-70
2022/10/01 03:23:36;;;;;;;0.80;0.80;;;;;;;11.11;93.99;99777.44;2047451;28;20051;-70
2022/10/01 03:24:38;;;;;;;0.80;0.80;;;;;;;11.11;94.36;99777.44;2028943;29;20523;-70
2022/10/01 03:25:41;;;;;;;0.80;0.80;;;;;;;11.11;94.11;99778.22;2045707;28;20051;-70
2022/10/01 03:26:44;;;;;;;0.80;0.80;;;;;;;11.13;94.50;99769.75;2063186;28;20128;-70
2022/10/01 03:27:47;;;;;;;0.80;0.80;;;;;;;11.13;93.93;99762.41;2064248;28;20054;-70
2022/10/01 03:28:49;;;;;;;0.80;0.80;;;;;;;11.14;93.95;99768.59;2061903;28;20572;-70
2022/10/01 03:29:52;;;;;;;0.90;0.90;;;;;;;11.15;93.78;99767.44;2060571;28;20055;-70
2022/10/01 03:31:04;;;;;;;0.80;0.80;;;;;;;11.14;94.15;99772.06;2060993;28;20137;-70
2022/10/01 03:32:07;;;;;;;0.80;0.80;;;;;;;11.15;94.12;99770.91;2062381;28;20093;-71
2022/10/01 03:33:10;;;;;;;0.80;0.80;;;;;;;11.17;94.00;99767.84;2064939;28;20446;-70
2022/10/01 03:34:13;;;;;;;0.80;0.80;;;;;;;11.19;93.67;99776.38;2062654;28;20046;-71
2022/10/01 03:35:15;;;;;;;0.70;0.70;;;;;;;11.18;94.19;99770.16;2050687;28;20122;-70
2022/10/01 03:36:18;;;;;;;0.82;0.82;;;;;;;11.19;94.09;99766.34;2055475;28;20132;-70
2022/10/01 03:37:20;;;;;;;0.90;0.90;;;;;;;11.19;94.13;99771.75;2060624;28;20403;-70
2022/10/01 03:38:23;;;;;;;0.80;0.80;;;;;;;11.20;93.95;99767.09;2050139;28;20093;-69
2022/10/01 03:39:25;;;;;;;0.90;0.90;;;;;;;11.20;94.07;99769.81;2049452;28;20071;-69
2022/10/01 03:40:29;;;;;;;0.90;0.90;;;;;;;11.20;93.67;99773.28;2053449;28;20116;-69
2022/10/01 03:41:31;;;;;;;1.00;1.00;;;;;;;11.21;93.81;99774.84;2051167;28;20118;-70
2022/10/01 03:42:34;;;;;;;1.00;1.00;;;;;;;11.23;94.04;99777.16;2062830;28;20462;-70
2022/10/01 03:43:36;;;;;;;0.90;0.90;;;;;;;11.24;93.94;99776.03;2058839;28;20502;-70
2022/10/01 03:44:39;;;;;;;0.90;0.90;;;;;;;11.23;93.85;99771.75;2059024;28;20059;-69
2022/10/01 03:45:41;;;;;;;0.90;0.90;;;;;;;11.23;94.11;99774.47;2058571;28;20059;-69
2022/10/01 03:46:44;;;;;;;0.90;0.90;;;;;;;11.23;93.82;99767.16;2059455;28;20081;-69
2022/10/01 03:47:50;;;;;;;0.90;0.90;;;;;;;11.23;94.05;99777.16;2056566;28;20086;-70
2022/10/01 03:48:56;;;;;;;0.95;0.95;;;;;;;11.24;93.67;99776.03;2063432;28;20046;-69
2022/10/01 03:49:58;;;;;;;1.00;1.00;;;;;;;11.22;94.10;99767.50;2049846;28;20109;-69
2022/10/01 03:51:01;;;;;;;0.90;0.90;;;;;;;11.24;94.27;99768.69;2052132;28;20507;-70
2022/10/01 03:52:05;;;;;;;0.82;0.82;;;;;;;11.24;93.92;99773.34;2058462;28;20076;-70
2022/10/01 03:53:08;;;;;;;0.80;0.80;;;;;;;11.25;94.07;99774.88;2057472;28;20105;-69
2022/10/01 03:54:10;;;;;;;0.80;0.80;;;;;;;11.27;94.42;99753.69;2064192;28;20532;-69
2022/10/01 03:55:13;;;;;;;0.80;0.80;;;;;;;11.28;94.35;99763.31;2059775;28;20047;-69
2022/10/01 03:56:15;;;;;;;0.80;0.80;;;;;;;11.26;94.55;99760.22;2058843;28;20047;-69
2022/10/01 03:57:18;;;;;;;0.90;0.90;;;;;;;11.27;94.40;99765.28;2060861;28;20046;-69
2022/10/01 03:58:22;;;;;;;0.80;0.80;;;;;;;11.26;94.42;99752.91;2056378;28;20053;-69
2022/10/01 03:59:26;;;;;;;0.80;0.80;;;;;;;11.29;93.84;99765.66;2063656;28;20565;-69
2022/10/01 04:00:28;;;;;;;0.80;0.80;;;;;;;11.28;93.99;99752.53;2059620;28;20059;-70
2022/10/01 04:01:30;;;;;;;0.80;0.80;;;;;;;11.29;94.02;99754.09;2059474;28;20062;-70
2022/10/01 04:02:33;;;;;;;0.90;0.90;;;;;;;11.29;94.46;99756.78;2061748;28;20498;-69
2022/10/01 04:03:36;;;;;;;0.80;0.80;;;;;;;11.29;94.53;99773.00;2047888;29;20085;-69
2022/10/01 04:04:40;;;;;;;0.90;0.90;;;;;;;11.30;94.62;99750.22;2054069;28;20109;-69
2022/10/01 04:05:44;;;;;;;0.80;0.80;;;;;;;11.31;94.61;99759.88;2050513;28;20142;-69
2022/10/01 04:06:46;;;;;;;0.82;0.82;;;;;;;11.31;94.64;99766.06;2053206;28;20622;-70
2022/10/01 04:07:49;;;;;;;0.80;0.80;;;;;;;11.33;94.62;99768.41;2056649;28;20112;-69
2022/10/01 04:08:51;;;;;;;0.80;0.80;;;;;;;11.33;94.40;99771.09;2059389;28;20082;-69
2022/10/01 04:09:54;;;;;;;0.80;0.80;;;;;;;11.34;94.85;99756.44;2057972;28;20129;-69
2022/10/01 04:10:56;;;;;;;0.90;0.90;;;;;;;11.36;94.67;99762.25;2060079;28;20549;-70
2022/10/01 04:11:59;;;;;;;0.80;0.80;;;;;;;11.34;94.50;99764.53;2062171;28;20050;-69
2022/10/01 04:13:02;;;;;;;0.90;0.90;;;;;;;11.34;95.04;99781.53;2056896;28;20051;-69
2022/10/01 04:14:05;;;;;;;0.90;0.90;;;;;;;11.36;94.68;99762.25;2059155;28;20501;-69
2022/10/01 04:15:08;;;;;;;0.90;0.90;;;;;;;11.38;94.66;99765.38;2062586;28;20721;-69
2022/10/01 04:16:11;;;;;;;0.98;0.98;;;;;;;11.40;94.73;99763.09;2063210;28;20457;-69
2022/10/01 04:17:13;;;;;;;0.90;0.90;;;;;;;11.39;94.71;99759.59;2055242;28;20062;-69
2022/10/01 04:18:19;;;;;;;0.90;0.90;;;;;;;11.40;94.84;99773.88;2047559;28;20535;-69
2022/10/01 04:19:22;;;;;;;0.90;0.90;;;;;;;11.40;94.69;99771.94;2054755;28;20134;-69
2022/10/01 04:20:25;;;;;;;0.80;0.80;;;;;;;11.42;95.02;99768.88;2059026;28;20501;-69
2022/10/01 04:21:29;;;;;;;0.82;0.82;;;;;;;11.42;94.87;99768.88;2054628;28;20529;-69
2022/10/01 04:22:35;;;;;;;0.88;0.88;;;;;;;11.42;94.63;99771.56;2053395;28;20085;-69
2022/10/01 04:23:38;;;;;;;0.90;0.90;;;;;;;11.43;94.60;99762.34;2047753;28;20134;-69
2022/10/01 04:24:40;;;;;;;0.90;0.90;;;;;;;11.43;94.60;99759.63;2054883;28;20142;-69
2022/10/01 04:25:43;;;;;;;0.90;0.90;;;;;;;11.44;94.73;99780.09;2053000;28;20051;-69
2022/10/01 04:26:45;;;;;;;0.90;0.90;;;;;;;11.43;94.97;99778.56;2046700;29;20070;-69
2022/10/01 04:27:57;;;;;;;1.00;1.00;;;;;;;11.43;94.75;99771.19;2049480;28;20051;-69
2022/10/01 04:29:00;;;;;;;0.90;0.90;;;;;;;11.44;94.61;99771.97;2061967;28;20062;-69
2022/10/01 04:30:03;;;;;;;0.80;0.80;;;;;;;11.44;94.54;99772.78;2052395;28;20493;-70
2022/10/01 04:31:24;;;;;;;1.00;1.00;;;;;;;11.47;94.38;99774.72;2048578;28;20066;-69
2022/10/01 04:32:27;;;;;;;0.80;0.80;;;;;;;11.44;94.75;99769.28;2056838;28;20138;-70
2022/10/01 04:33:31;;;;;;;0.90;0.90;;;;;;;11.45;94.69;99774.31;2057165;28;20161;-69
2022/10/01 04:34:52;;;;;;;0.80;0.80;;;;;;;11.44;94.93;99767.38;2058606;28;21306;-70
2022/10/01 04:35:55;;;;;;;0.80;0.80;;;;;;;11.45;94.77;99770.81;2060670;28;20050;-69
2022/10/01 04:36:58;;;;;;;0.70;0.70;;;;;;;11.46;94.71;99777.81;2046860;29;20051;-69
2022/10/01 04:38:03;;;;;;;0.80;0.80;;;;;;;11.45;94.52;99774.31;2047304;28;20470;-69
2022/10/01 04:39:07;;;;;;;0.90;0.90;;;;;;;11.46;94.71;99765.06;2060742;28;20138;-69
2022/10/01 04:40:09;;;;;;;0.80;0.80;;;;;;;11.48;94.64;99767.41;2058338;28;20051;-69
2022/10/01 04:41:13;;;;;;;0.80;0.80;;;;;;;11.48;94.70;99754.66;2051125;28;20078;-69
2022/10/01 04:42:15;;;;;;;0.82;0.82;;;;;;;11.51;94.71;99780.19;2054388;28;20097;-69
2022/10/01 04:43:18;;;;;;;0.82;0.82;;;;;;;11.50;95.06;99775.91;2063284;28;20503;-69
2022/10/01 04:44:20;;;;;;;0.82;0.82;;;;;;;11.52;94.67;99770.91;2058888;28;20079;-69
2022/10/01 04:45:23;;;;;;;0.90;0.90;;;;;;;11.51;94.85;99770.13;2054906;28;20207;-69
2022/10/01 04:46:25;;;;;;;0.80;0.80;;;;;;;11.52;94.66;99770.91;2054115;28;20126;-69
2022/10/01 04:47:29;;;;;;;0.80;0.80;;;;;;;11.54;94.88;99776.72;2049094;28;20043;-70
2022/10/01 04:48:36;;;;;;;0.80;0.80;;;;;;;11.53;95.00;99775.16;2048696;28;20142;-70
2022/10/01 04:49:39;;;;;;;0.77;0.77;;;;;;;11.54;94.92;99765.91;2062010;28;20046;-68
2022/10/01 04:50:42;;;;;;;0.90;0.90;;;;;;;11.54;94.84;99772.06;2059718;28;20086;-69
2022/10/01 04:51:46;;;;;;;0.80;0.80;;;;;;;11.59;94.81;99776.38;2052335;28;20093;-69
2022/10/01 04:52:48;;;;;;;0.80;0.80;;;;;;;11.59;94.74;99762.88;2051665;28;20137;-69
2022/10/01 04:53:51;;;;;;;0.80;0.80;;;;;;;11.59;94.81;99773.69;2047736;28;20067;-71
2022/10/01 04:54:53;;;;;;;0.80;0.80;;;;;;;11.60;94.96;99776.00;2046884;28;20455;-70
2022/10/01 04:55:56;;;;;;;0.90;0.90;;;;;;;11.61;94.83;99782.19;2054091;28;20384;-70
2022/10/01 04:56:58;;;;;;;0.90;0.90;;;;;;;11.62;94.80;99795.31;2061059;28;20132;-70
2022/10/01 04:58:01;;;;;;;1.00;1.00;;;;;;;11.63;94.65;99815.06;2062988;28;20145;-70
2022/10/01 04:59:03;;;;;;;0.80;0.80;;;;;;;11.64;95.00;99811.19;2059288;28;20418;-70
2022/10/01 05:00:08;;;;;;;0.93;0.93;;;;;;;11.64;94.93;99809.28;2057323;28;20054;-70
2022/10/01 05:01:10;;;;;;;0.85;0.85;;;;;;;11.64;94.65;99813.91;2058545;28;20059;-70
2022/10/01 05:02:13;;;;;;;0.80;0.80;;;;;;;11.67;94.79;99824.00;2060601;28;20054;-69
2022/10/01 05:03:16;;;;;;;0.82;0.82;;;;;;;11.68;94.98;99803.91;2055915;28;20510;-69
2022/10/01 05:04:19;;;;;;;0.90;0.90;;;;;;;11.69;94.96;99806.25;2064742;28;20502;-69
2022/10/01 05:05:23;;;;;;;0.82;0.82;;;;;;;11.69;94.80;99819.75;2059945;28;20050;-71
2022/10/01 05:06:26;;;;;;;0.90;0.90;;;;;;;11.71;94.91;99813.97;2050624;28;20093;-69
2022/10/01 05:07:29;;;;;;;0.98;0.98;;;;;;;11.72;94.53;99821.72;2048500;28;20131;-70